Meteo Giornale » Osservazioni meteo Italia » Cervia

ore: 13:55 - Osservazioni Meteo Cervia
Lat. 44° 13' N Lon. 12° 18' E Alt. 6 metri s.l.m.

sereno Europe/Rome

21 °C

Sereno

Temp. 24 Ore

7 °C

21 °C

Est/Nord-Est

11.1 Km/h

Dew point 11 °C

Umidità 52 %

Visibilità  10 Km

Il sole sorge alle ore 06:52

Il sole tramonta alle ore 19:37

Data e Ora Cielo e Fenomeni T °C DP °C Um. % Pres. hPa Vis. km Vento km/h
Oggi h: 13:55 sereno Sereno 21 11 52 1025 10 E/NE 11.1
Oggi h: 12:55 sereno Sereno 20 10 52 1026 10 N 5.5
Oggi h: 11:55 sereno Sereno 19 9 52 1026 10 NO 9.3
Oggi h: 10:55 sereno Sereno 17 10 63 1026 10 NO 11.1
Oggi h: 09:55 sereno Sereno 14 10 76 1025 10 N 5.5
Oggi h: 08:55 sereno Sereno 10 8 87 1025 10 N 5.5
Oggi h: 07:55 sereno Sereno 7 7 100 1024 10 NO 9.3
Oggi h: 06:55 sereno Sereno 7 6 93 1024 10 N 5.5
Oggi h: 05:55 sereno Sereno 8 6 87 1023 10 N 3.7
Oggi h: 04:55 sereno Sereno 8 6 87 1023 10 O/SO 7.4
Oggi h: 03:55 sereno Sereno 8 6 87 1023 10 N 0
Oggi h: 02:55 sereno Sereno 9 7 87 1023 10 N 1.8
Oggi h: 01:55 sereno Sereno 8 7 93 1023 10 N 3.7
Oggi h: 00:55 sereno Sereno 9 8 93 1023 10 N 3.7
Ieri h: 23:55 sereno Sereno 9 8 93 1023 10 N 5.5
Ieri h: 22:55 sereno Sereno 10 8 87 1023 10 N 5.5
Ieri h: 21:55 sereno Sereno 10 9 93 1022 10 N 5.5
Ieri h: 20:55 sereno Sereno 11 9 87 1022 10 N 3.7
Ieri h: 19:55 sereno Sereno 15 9 67 1022 10 N 0
Ieri h: 18:55 sereno Sereno 18 9 55 1022 10 N 3.7
Ieri h: 17:55 sereno Sereno 19 9 52 1022 10 N 5.5
Ieri h: 16:55 sereno Sereno 20 9 49 1022 10 E/NE 11.1
Ieri h: 15:55 sereno Sereno 21 7 40 1022 10 E/NE 16.7
Ieri h: 14:55 sereno Sereno 21 9 46 1023 10 N/NO 14.8